Time;durP1;ratioP1;P1;durP2;ratioP2;P2;SDS_P1;SDS_P2;PMS_P1;PMS_P2;Temp;Humidity;BMP_temperature;BMP_pressure;BME280_temperature;BME280_humidity;BME280_pressure;Samples;Min_cycle;Max_cycle;Signal;HPM_P1;HPM_P2
2022/04/13 00:00:11;;;;;;;7.57;3.72;;;;;;;-139.48;100.00;61774.03;5015224;28;19920;-68
2022/04/13 00:02:56;;;;;;;3.95;3.00;;;;;;;-139.48;100.00;61774.03;5013883;28;20049;-69
2022/04/13 00:05:40;;;;;;;10.52;3.22;;;;;;;-139.48;100.00;61774.03;5014057;28;20164;-69
2022/04/13 00:08:24;;;;;;;7.90;3.83;;;;;;;-139.48;100.00;61774.03;5015057;28;20049;-69
2022/04/13 00:11:08;;;;;;;5.80;3.75;;;;;;;-139.48;100.00;61774.03;5013670;28;20049;-69
2022/04/13 00:13:51;;;;;;;7.25;3.70;;;;;;;-139.48;100.00;61774.03;5014684;28;20052;-69
2022/04/13 00:16:35;;;;;;;6.35;3.88;;;;;;;-139.48;100.00;61774.03;5014309;28;20053;-69
2022/04/13 00:19:21;;;;;;;8.55;3.67;;;;;;;-139.48;100.00;61774.03;5014033;28;20405;-69
2022/04/13 00:22:05;;;;;;;8.52;3.85;;;;;;;-139.48;100.00;61774.03;5013667;28;20474;-69
2022/04/13 00:24:49;;;;;;;10.15;3.50;;;;;;;-139.48;100.00;61774.03;5013459;28;20049;-68
2022/04/13 00:27:33;;;;;;;6.72;3.80;;;;;;;-139.48;100.00;61774.03;5013388;28;20086;-69
2022/04/13 00:30:17;;;;;;;7.15;3.72;;;;;;;-139.48;100.00;61774.03;5013641;28;20536;-69
2022/04/13 00:33:01;;;;;;;11.13;3.80;;;;;;;-139.48;100.00;61774.03;5013576;28;20124;-69
2022/04/13 00:35:45;;;;;;;5.30;3.83;;;;;;;-139.48;100.00;61774.03;5013490;28;20103;-69
2022/04/13 00:38:29;;;;;;;4.95;3.58;;;;;;;-139.48;100.00;61774.03;5014178;28;20044;-69
2022/04/13 00:41:13;;;;;;;3.67;3.13;;;;;;;-139.48;100.00;61774.03;5013670;28;20053;-69
2022/04/13 00:44:05;;;;;;;9.13;3.42;;;;;;;-139.48;100.00;61774.03;4999007;28;20452;-69
2022/04/13 00:46:49;;;;;;;7.50;4.00;;;;;;;-139.48;100.00;61774.03;4999320;28;20053;-69
2022/04/13 00:49:34;;;;;;;5.38;3.70;;;;;;;-139.48;100.00;61774.03;5014306;28;20413;-69
2022/04/13 00:52:20;;;;;;;5.88;3.42;;;;;;;-139.48;100.00;61774.03;5013239;28;20084;-69
2022/04/13 00:55:07;;;;;;;6.25;3.70;;;;;;;-139.48;100.00;61774.03;5013054;28;20513;-69
2022/04/13 00:57:53;;;;;;;8.95;3.72;;;;;;;-139.48;100.00;61774.03;5013721;28;20092;-69
2022/04/13 01:00:39;;;;;;;6.13;3.38;;;;;;;-139.48;100.00;61774.03;5012825;28;20049;-69
2022/04/13 01:03:24;;;;;;;5.13;3.58;;;;;;;-139.48;100.00;61774.03;4999152;28;20100;-69
2022/04/13 01:06:10;;;;;;;5.53;3.45;;;;;;;-139.48;100.00;61774.03;5012906;28;20516;-69
2022/04/13 01:08:55;;;;;;;7.75;3.50;;;;;;;-139.48;100.00;61774.03;5012996;28;20100;-69
2022/04/13 01:11:39;;;;;;;8.40;3.47;;;;;;;-139.48;100.00;61774.03;5013055;28;20060;-69
2022/04/13 01:14:23;;;;;;;6.60;3.50;;;;;;;-139.48;100.00;61774.03;5012917;28;20129;-69
2022/04/13 01:17:07;;;;;;;6.50;4.22;;;;;;;-139.48;100.00;61774.03;5007461;23;20072;-69
2022/04/13 01:19:51;;;;;;;6.35;3.40;;;;;;;-139.48;100.00;61774.03;5013792;28;20064;-69
2022/04/13 01:22:35;;;;;;;5.95;3.30;;;;;;;-139.48;100.00;61774.03;5012882;28;20048;-69
2022/04/13 01:25:19;;;;;;;6.95;3.92;;;;;;;-139.48;100.00;61774.03;5014073;28;20049;-69
2022/04/13 01:28:03;;;;;;;9.43;4.45;;;;;;;-139.48;100.00;61774.03;5012422;28;20049;-68
2022/04/13 01:30:47;;;;;;;6.78;3.08;;;;;;;-139.48;100.00;61774.03;5012585;28;20177;-69
2022/04/13 01:33:31;;;;;;;8.43;3.60;;;;;;;-139.48;100.00;61774.03;5013504;28;20053;-69
2022/04/13 01:36:16;;;;;;;5.10;3.20;;;;;;;-139.48;100.00;61774.03;5012814;28;20045;-69
2022/04/13 01:38:59;;;;;;;3.65;3.03;;;;;;;-139.48;100.00;61774.03;5013380;28;20068;-69
2022/04/13 01:41:43;;;;;;;7.05;3.20;;;;;;;-139.48;100.00;61774.03;5013383;28;20061;-69
2022/04/13 01:44:27;;;;;;;8.23;3.75;;;;;;;-139.48;100.00;61774.03;5013356;28;20129;-69
2022/04/13 01:47:11;;;;;;;6.35;3.03;;;;;;;-139.48;100.00;61774.03;4998630;28;20053;-69
2022/04/13 01:49:56;;;;;;;5.95;3.08;;;;;;;-139.48;100.00;61774.03;5013302;28;20103;-69
2022/04/13 01:52:40;;;;;;;7.30;3.72;;;;;;;-139.48;100.00;61774.03;5013543;28;20479;-69
2022/04/13 01:55:24;;;;;;;6.05;3.78;;;;;;;-139.48;100.00;61774.03;5015054;28;20057;-69
2022/04/13 01:58:08;;;;;;;6.05;3.92;;;;;;;-139.48;100.00;61774.03;5016429;28;20117;-69
2022/04/13 02:00:54;;;;;;;9.95;3.85;;;;;;;-139.48;100.00;61774.03;5017430;28;20056;-69
2022/04/13 02:03:40;;;;;;;5.97;3.30;;;;;;;-139.48;100.00;61774.03;5016378;28;20073;-69
2022/04/13 02:06:24;;;;;;;6.03;3.58;;;;;;;-139.48;100.00;61774.03;5017190;28;20448;-69
2022/04/13 02:09:08;;;;;;;7.22;3.70;;;;;;;-139.48;100.00;61774.03;5002437;28;20072;-69
2022/04/13 02:11:52;;;;;;;5.47;3.60;;;;;;;-139.48;100.00;61774.03;5002283;28;20056;-69
2022/04/13 02:14:36;;;;;;;7.97;3.83;;;;;;;-139.48;100.00;61774.03;5017167;28;20053;-69
2022/04/13 02:17:21;;;;;;;11.45;3.83;;;;;;;-139.48;100.00;61774.03;5015535;28;20469;-69
2022/04/13 02:20:06;;;;;;;5.75;3.92;;;;;;;-139.48;100.00;61774.03;5017235;28;20139;-69
2022/04/13 02:22:50;;;;;;;9.98;4.18;;;;;;;-139.48;100.00;61774.03;5016704;28;20053;-69
2022/04/13 02:25:35;;;;;;;8.73;3.70;;;;;;;-139.48;100.00;61774.03;5015977;28;20144;-69
2022/04/13 02:28:19;;;;;;;8.38;3.40;;;;;;;-139.48;100.00;61774.03;5015574;28;20080;-69
2022/04/13 02:31:03;;;;;;;7.57;3.92;;;;;;;-139.48;100.00;61774.03;5015880;28;20052;-69
2022/04/13 02:33:48;;;;;;;8.57;4.00;;;;;;;-139.48;100.00;61774.03;5001951;28;20049;-69
2022/04/13 02:36:31;;;;;;;6.18;3.88;;;;;;;-139.48;100.00;61774.03;5015579;28;20180;-69
2022/04/13 02:39:15;;;;;;;7.53;3.80;;;;;;;-139.48;100.00;61774.03;5016400;28;20053;-69
2022/04/13 02:42:00;;;;;;;9.95;4.65;;;;;;;-139.48;100.00;61774.03;5015583;28;20133;-69
2022/04/13 02:44:44;;;;;;;6.75;3.67;;;;;;;-139.48;100.00;61774.03;5015341;28;20053;-69
2022/04/13 02:47:28;;;;;;;6.47;3.80;;;;;;;-139.48;100.00;61774.03;5001615;28;20049;-68
2022/04/13 02:50:12;;;;;;;12.10;4.00;;;;;;;-139.48;100.00;61774.03;5015234;28;20052;-69
2022/04/13 02:52:56;;;;;;;14.32;4.43;;;;;;;-139.48;100.00;61774.03;5016646;28;20184;-69
2022/04/13 02:55:40;;;;;;;8.88;4.18;;;;;;;-139.48;100.00;61774.03;5015362;28;20045;-69
2022/04/13 02:58:24;;;;;;;6.65;3.83;;;;;;;-139.48;100.00;61774.03;5015082;28;20057;-69
2022/04/13 03:01:07;;;;;;;8.55;3.92;;;;;;;-139.48;100.00;61774.03;5015091;28;20095;-69
2022/04/13 03:03:51;;;;;;;7.00;4.25;;;;;;;-139.48;100.00;61774.03;5015275;28;20087;-68
2022/04/13 03:06:35;;;;;;;6.45;3.88;;;;;;;-139.48;100.00;61774.03;5014176;28;20528;-69
2022/04/13 03:09:19;;;;;;;4.72;3.83;;;;;;;-139.48;100.00;61774.03;5015033;28;20096;-69
2022/04/13 03:12:04;;;;;;;7.68;4.10;;;;;;;-139.48;100.00;61774.03;5015155;28;20835;-68
2022/04/13 03:14:48;;;;;;;7.88;3.65;;;;;;;-139.48;100.00;61774.03;5015270;28;20049;-69
2022/04/13 03:17:32;;;;;;;6.13;4.70;;;;;;;-139.48;100.00;61774.03;5000713;28;20144;-69
2022/04/13 03:20:16;;;;;;;6.22;4.35;;;;;;;-139.48;100.00;61774.03;5014678;28;20426;-69
2022/04/13 03:23:01;;;;;;;7.43;4.30;;;;;;;-139.48;100.00;61774.03;5001296;28;20053;-69
2022/04/13 03:25:45;;;;;;;7.13;4.25;;;;;;;-139.48;100.00;61774.03;5015918;28;20120;-69
2022/04/13 03:28:29;;;;;;;14.13;4.10;;;;;;;-139.48;100.00;61774.03;5014446;28;20065;-69
2022/04/13 03:31:13;;;;;;;8.60;3.95;;;;;;;-139.48;100.00;61774.03;5014439;28;20048;-69
2022/04/13 03:33:57;;;;;;;10.60;4.38;;;;;;;-139.48;100.00;61774.03;5000593;28;20080;-69
2022/04/13 03:36:41;;;;;;;10.30;4.43;;;;;;;-139.48;100.00;61774.03;5000652;28;20048;-68
2022/04/13 03:39:25;;;;;;;10.00;4.15;;;;;;;-139.48;100.00;61774.03;5014290;28;20124;-69
2022/04/13 03:42:09;;;;;;;10.70;4.22;;;;;;;-139.48;100.00;61774.03;5014779;28;20064;-69
2022/04/13 03:44:53;;;;;;;8.05;4.38;;;;;;;-139.48;100.00;61774.03;5014257;28;20417;-69
2022/04/13 03:47:38;;;;;;;10.65;4.85;;;;;;;-139.48;100.00;61774.03;5014591;28;20053;-69
2022/04/13 03:50:22;;;;;;;7.10;4.15;;;;;;;-139.48;100.00;61774.03;5014416;28;20508;-69
2022/04/13 03:53:06;;;;;;;7.03;4.57;;;;;;;-139.48;100.00;61774.03;5014164;28;20156;-69
2022/04/13 03:55:50;;;;;;;5.78;4.32;;;;;;;-139.48;100.00;61774.03;5015276;28;20053;-69
2022/04/13 03:58:34;;;;;;;7.80;5.13;;;;;;;-139.48;100.00;61774.03;5000301;28;20060;-69
2022/04/13 04:01:18;;;;;;;12.88;5.00;;;;;;;-139.48;100.00;61774.03;5015058;28;20052;-68
2022/04/13 04:04:02;;;;;;;7.72;5.30;;;;;;;-139.48;100.00;61774.03;5000261;28;20048;-68
2022/04/13 04:06:46;;;;;;;7.57;4.75;;;;;;;-139.48;100.00;61774.03;5014690;28;20124;-69
2022/04/13 04:09:30;;;;;;;6.57;4.97;;;;;;;-139.48;100.00;61774.03;5013902;28;20049;-69
2022/04/13 04:12:15;;;;;;;7.60;5.07;;;;;;;-139.48;100.00;61774.03;5014680;28;20103;-68
2022/04/13 04:15:00;;;;;;;9.82;4.93;;;;;;;-139.48;100.00;61774.03;5013922;28;20049;-69
2022/04/13 04:17:44;;;;;;;6.07;4.47;;;;;;;-139.48;100.00;61774.03;5013153;28;20418;-69
2022/04/13 04:20:28;;;;;;;8.18;5.03;;;;;;;-139.48;100.00;61774.03;5014054;28;20453;-68
2022/04/13 04:23:12;;;;;;;8.07;4.60;;;;;;;-139.48;100.00;61774.03;5000031;28;20084;-69
2022/04/13 04:25:56;;;;;;;7.82;5.32;;;;;;;-139.48;100.00;61774.03;5014663;28;20540;-68
2022/04/13 04:28:41;;;;;;;11.57;5.80;;;;;;;-139.48;100.00;61774.03;5014652;28;20438;-69
2022/04/13 04:34:28;;;;;;;7.35;5.30;;;;;;;-139.48;100.00;61774.03;5014516;28;20052;-69
2022/04/13 04:37:12;;;;;;;7.20;5.00;;;;;;;-139.48;100.00;61774.03;5014092;28;20072;-69
2022/04/13 04:39:56;;;;;;;7.43;4.88;;;;;;;-139.48;100.00;61774.03;5013530;28;20109;-68
2022/04/13 04:42:47;;;;;;;12.85;4.95;;;;;;;-139.48;100.00;61774.03;5014435;28;20049;-69
2022/04/13 04:45:31;;;;;;;14.43;5.55;;;;;;;-139.48;100.00;61774.03;5013091;28;20456;-68
2022/04/13 04:48:15;;;;;;;9.10;4.38;;;;;;;-139.48;100.00;61774.03;5012946;28;20168;-68
2022/04/13 04:50:58;;;;;;;10.18;5.68;;;;;;;-139.48;100.00;61774.03;5013513;28;20053;-69
2022/04/13 04:53:42;;;;;;;8.13;5.03;;;;;;;-139.48;100.00;61774.03;4999341;28;20103;-69
2022/04/13 04:56:26;;;;;;;7.57;5.55;;;;;;;-139.48;100.00;61774.03;5014071;28;20045;-69
2022/04/13 04:59:10;;;;;;;8.07;5.43;;;;;;;-139.48;100.00;61774.03;5013208;28;20180;-69
2022/04/13 05:01:54;;;;;;;9.07;5.70;;;;;;;-139.48;100.00;61774.03;5014369;28;20052;-68
2022/04/13 05:04:38;;;;;;;7.28;5.07;;;;;;;-139.48;100.00;61774.03;5013035;28;20064;-68
2022/04/13 05:07:22;;;;;;;14.48;5.75;;;;;;;-139.48;100.00;61774.03;5012986;28;20061;-69
2022/04/13 05:10:07;;;;;;;9.85;4.97;;;;;;;-139.48;100.00;61774.03;5013027;28;20048;-69
2022/04/13 05:12:53;;;;;;;9.27;5.70;;;;;;;-139.48;100.00;61774.03;5013691;28;20136;-69
2022/04/13 05:15:37;;;;;;;7.50;4.72;;;;;;;-139.48;100.00;61774.03;5013161;28;20180;-68
2022/04/13 05:18:21;;;;;;;9.73;4.80;;;;;;;-139.48;100.00;61774.03;4998608;28;20091;-68
2022/04/13 05:21:05;;;;;;;9.05;5.28;;;;;;;-139.48;100.00;61774.03;5012810;28;20585;-69
2022/04/13 05:23:49;;;;;;;9.10;5.20;;;;;;;-139.48;100.00;61774.03;5013591;28;20517;-68
2022/04/13 05:26:33;;;;;;;11.27;5.57;;;;;;;-139.48;100.00;61774.03;5012618;28;20133;-68
2022/04/13 05:29:17;;;;;;;11.32;5.05;;;;;;;-139.48;100.00;61774.03;5013345;28;20509;-69
2022/04/13 05:32:02;;;;;;;9.50;5.97;;;;;;;-139.48;100.00;61774.03;5012522;28;20099;-69
2022/04/13 05:34:46;;;;;;;7.88;5.28;;;;;;;-139.48;100.00;61774.03;5013689;28;20501;-69
2022/04/13 05:37:29;;;;;;;6.20;5.10;;;;;;;-139.48;100.00;61774.03;5012407;28;20045;-69
2022/04/13 05:40:13;;;;;;;7.70;5.60;;;;;;;-139.48;100.00;61774.03;5012754;28;20524;-69
2022/04/13 05:42:57;;;;;;;7.28;5.25;;;;;;;-139.48;100.00;61774.03;5012675;28;20049;-69
2022/04/13 05:45:41;;;;;;;12.95;5.32;;;;;;;-139.48;100.00;61774.03;5013382;28;20137;-69
2022/04/13 05:48:25;;;;;;;13.50;5.30;;;;;;;-139.48;100.00;61774.03;5013520;28;20072;-69
2022/04/13 05:51:12;;;;;;;9.63;5.28;;;;;;;-139.48;100.00;61774.03;4998507;28;20052;-69
2022/04/13 05:53:56;;;;;;;9.10;5.05;;;;;;;-139.48;100.00;61774.03;5013242;28;20049;-69
2022/04/13 05:56:40;;;;;;;6.63;4.68;;;;;;;-139.48;100.00;61774.03;5012152;28;20095;-69
2022/04/13 05:59:24;;;;;;;8.07;5.63;;;;;;;-139.48;100.00;61774.03;4998772;28;20532;-69
2022/04/13 06:02:08;;;;;;;6.90;5.20;;;;;;;-139.48;100.00;61774.03;5013220;28;20064;-69
2022/04/13 06:04:51;;;;;;;8.27;5.65;;;;;;;-139.48;100.00;61774.03;5012534;28;20057;-68
2022/04/13 06:07:36;;;;;;;9.15;5.47;;;;;;;-139.48;100.00;61774.03;5012229;28;20180;-69
2022/04/13 06:10:21;;;;;;;8.88;5.20;;;;;;;-139.48;100.00;61774.03;5012152;28;20157;-69
2022/04/13 06:13:05;;;;;;;9.18;5.32;;;;;;;-139.48;100.00;61774.03;5012392;28;20070;-69
2022/04/13 06:15:49;;;;;;;10.93;6.30;;;;;;;-139.48;100.00;61774.03;5012092;28;20053;-69
2022/04/13 06:18:33;;;;;;;13.77;5.40;;;;;;;-139.48;100.00;61774.03;4998962;28;20061;-69
2022/04/13 06:21:17;;;;;;;6.15;5.03;;;;;;;-139.48;100.00;61774.03;5012371;28;20052;-69
2022/04/13 06:24:01;;;;;;;13.15;5.40;;;;;;;-139.48;100.00;61774.03;5012277;28;20462;-69
2022/04/13 06:26:45;;;;;;;14.73;6.80;;;;;;;-139.48;100.00;61774.03;5012160;28;20048;-69
2022/04/13 06:29:29;;;;;;;5.72;4.85;;;;;;;-139.48;100.00;61774.03;5012273;28;20045;-69
2022/04/13 06:32:13;;;;;;;10.52;5.32;;;;;;;-139.48;100.00;61774.03;5012338;28;20048;-68
2022/04/13 06:34:59;;;;;;;5.95;4.63;;;;;;;-139.48;100.00;61774.03;5012227;28;20129;-69
2022/04/13 06:37:45;;;;;;;7.97;4.97;;;;;;;-139.48;100.00;61774.03;5012813;28;20041;-69
2022/04/13 06:40:29;;;;;;;8.05;5.35;;;;;;;-139.48;100.00;61774.03;5012096;28;20057;-69
2022/04/13 06:43:12;;;;;;;7.35;5.40;;;;;;;-139.48;100.00;61774.03;5015383;28;20052;-69
2022/04/13 06:45:56;;;;;;;23.85;6.07;;;;;;;-139.48;100.00;61774.03;5001735;28;20578;-69
2022/04/13 06:48:40;;;;;;;20.63;5.78;;;;;;;-139.48;100.00;61774.03;5016226;28;20048;-69
2022/04/13 06:51:24;;;;;;;15.60;5.72;;;;;;;-139.48;100.00;61774.03;5015265;28;20563;-69
2022/04/13 06:54:08;;;;;;;11.20;5.03;;;;;;;-139.48;100.00;61774.03;5001543;28;20057;-68
2022/04/13 06:56:52;;;;;;;9.68;5.32;;;;;;;-139.48;100.00;61774.03;5014955;28;20048;-69
2022/04/13 06:59:36;;;;;;;12.77;5.90;;;;;;;-139.48;100.00;61774.03;5015540;28;20065;-69
2022/04/13 07:02:20;;;;;;;11.35;5.70;;;;;;;-139.48;100.00;61774.03;5016006;28;20192;-69
2022/04/13 07:05:04;;;;;;;9.02;5.65;;;;;;;-139.48;100.00;61774.03;5015473;28;20057;-69
2022/04/13 07:07:48;;;;;;;8.63;5.75;;;;;;;-139.48;100.00;61774.03;5014877;28;20156;-69
2022/04/13 07:10:33;;;;;;;13.63;6.00;;;;;;;-139.48;100.00;61774.03;5015155;28;20049;-69
2022/04/13 07:13:17;;;;;;;8.02;5.32;;;;;;;-139.48;100.00;61774.03;5015731;28;20045;-69
2022/04/13 07:16:01;;;;;;;10.85;6.10;;;;;;;-139.48;100.00;61774.03;5014878;28;20069;-69
2022/04/13 07:18:45;;;;;;;10.05;4.95;;;;;;;-139.48;100.00;61774.03;5016012;28;20057;-69
2022/04/13 07:21:29;;;;;;;12.57;5.30;;;;;;;-139.48;100.00;61774.03;5014912;28;20145;-69
2022/04/13 07:24:13;;;;;;;7.80;4.85;;;;;;;-139.48;100.00;61774.03;5014869;28;20414;-69
2022/04/13 07:26:57;;;;;;;10.68;5.63;;;;;;;-139.48;100.00;61774.03;5000669;28;20049;-69
2022/04/13 07:29:41;;;;;;;9.63;4.93;;;;;;;-139.48;100.00;61774.03;5014498;28;20439;-68
2022/04/13 07:32:25;;;;;;;16.90;5.10;;;;;;;-139.48;100.00;61774.03;5014460;28;20412;-69
2022/04/13 07:35:09;;;;;;;6.72;4.68;;;;;;;-139.48;100.00;61774.03;5001000;28;20053;-69
2022/04/13 07:37:53;;;;;;;6.68;4.50;;;;;;;-139.48;100.00;61774.03;5015300;28;20087;-69
2022/04/13 07:40:37;;;;;;;5.90;4.53;;;;;;;-139.48;100.00;61774.03;5014291;28;20092;-69
2022/04/13 07:43:21;;;;;;;10.88;5.55;;;;;;;-139.48;100.00;61774.03;5014205;28;20444;-69
2022/04/13 07:46:05;;;;;;;9.27;5.18;;;;;;;-139.48;100.00;61774.03;5014416;28;20504;-69
2022/04/13 07:48:49;;;;;;;15.32;5.43;;;;;;;-139.48;100.00;61774.03;5015375;28;20045;-69
2022/04/13 07:51:33;;;;;;;7.13;5.03;;;;;;;-139.48;100.00;61774.03;5015180;28;20048;-69
2022/04/13 07:54:17;;;;;;;8.30;4.82;;;;;;;-139.48;100.00;61774.03;5014383;28;20460;-69
2022/04/13 07:57:01;;;;;;;8.55;4.50;;;;;;;-139.48;100.00;61774.03;5015034;28;20049;-69
2022/04/13 07:59:45;;;;;;;7.90;4.60;;;;;;;-139.48;100.00;61774.03;5015158;28;20053;-69
2022/04/13 08:02:29;;;;;;;10.95;5.07;;;;;;;15.91;100.00;99970.09;5000031;28;20096;-69
2022/04/13 08:05:13;;;;;;;7.18;5.30;;;;;;;17.12;93.82;100318.47;5014750;28;20049;-69
2022/04/13 08:07:57;;;;;;;7.60;4.70;;;;;;;17.03;96.29;100319.56;5013864;28;20429;-69
2022/04/13 08:10:41;;;;;;;8.80;4.80;;;;;;;17.27;89.48;100319.28;5014295;28;20409;-68
2022/04/13 08:13:25;;;;;;;6.47;4.18;;;;;;;17.51;84.92;100329.00;5013973;28;20044;-69
2022/04/13 08:16:09;;;;;;;8.18;4.05;;;;;;;17.84;82.98;100341.03;5013755;28;20083;-69
2022/04/13 08:18:53;;;;;;;6.70;4.18;;;;;;;18.11;80.60;100333.06;4999967;28;20057;-69
2022/04/13 08:21:38;;;;;;;15.05;4.70;;;;;;;18.24;79.97;100338.59;5014986;28;20393;-69
2022/04/13 08:24:22;;;;;;;8.35;4.97;;;;;;;18.17;87.45;100337.69;4999942;28;20053;-69
2022/04/13 08:27:09;;;;;;;6.85;4.40;;;;;;;18.38;80.42;100331.50;5013522;28;20096;-69
2022/04/13 08:29:53;;;;;;;7.45;4.38;;;;;;;18.64;78.73;100336.13;5013675;28;20053;-69
2022/04/13 08:32:37;;;;;;;10.63;4.70;;;;;;;19.03;74.74;100339.16;4999672;28;20501;-69
2022/04/13 08:35:21;;;;;;;10.27;4.75;;;;;;;18.94;72.27;100331.38;5013543;28;20141;-69
2022/04/13 08:38:05;;;;;;;7.68;4.78;;;;;;;19.22;70.45;100341.22;5014106;28;20129;-69
2022/04/13 08:40:51;;;;;;;;;;;;;;;19.75;66.16;100342.31;5014498;28;20129;-69
2022/04/13 08:43:43;;;;;;;15.75;5.80;;;;;;;19.89;62.95;100341.38;5013381;28;19919;-69
2022/04/13 08:46:28;;;;;;;11.73;4.00;;;;;;;20.14;61.10;100340.66;5012897;28;20096;-70
2022/04/13 08:49:13;;;;;;;7.82;3.90;;;;;;;19.99;58.11;100337.22;5012965;28;20053;-69
2022/04/13 08:52:01;;;;;;;9.85;4.20;;;;;;;20.24;53.83;100330.28;5012959;28;20048;-69
2022/04/13 08:54:58;;;;;;;7.63;3.85;;;;;;;20.22;55.55;100337.75;4999590;28;20063;-69
2022/04/13 08:57:47;;;;;;;7.30;4.10;;;;;;;20.61;52.36;100326.19;4998866;28;20045;-69
2022/04/13 09:00:33;;;;;;;9.15;3.58;;;;;;;20.40;55.89;100339.91;5012911;28;20418;-69
2022/04/13 09:03:35;;;;;;;11.05;3.55;;;;;;;20.68;52.20;100338.69;5012905;28;20041;-69
2022/04/13 09:06:20;;;;;;;3.83;2.90;;;;;;;21.03;48.09;100331.22;5014238;28;20122;-69
2022/04/13 09:09:12;;;;;;;6.00;3.13;;;;;;;21.34;47.71;100327.63;5012959;28;20056;-70
2022/04/13 09:11:58;;;;;;;8.30;2.70;;;;;;;21.56;45.86;100331.72;5012691;28;20049;-69
2022/04/13 09:14:43;;;;;;;8.20;3.00;;;;;;;21.60;47.89;100334.84;5012690;28;20141;-69
2022/04/13 09:17:29;;;;;;;5.40;3.05;;;;;;;22.02;47.29;100337.03;5012369;28;20414;-69
2022/04/13 09:20:13;;;;;;;4.10;2.30;;;;;;;22.13;44.03;100329.03;4998866;28;20627;-69
2022/04/13 09:22:59;;;;;;;16.42;2.80;;;;;;;21.73;44.04;100340.25;5012808;28;20132;-69
2022/04/13 09:25:43;;;;;;;6.43;2.72;;;;;;;22.31;44.31;100336.44;5012497;28;20081;-69
2022/04/13 09:28:27;;;;;;;8.88;3.00;;;;;;;22.60;43.44;100330.44;5012505;28;20061;-69
2022/04/13 09:31:11;;;;;;;6.70;2.55;;;;;;;22.51;42.34;100335.28;5013734;28;20406;-69
2022/04/13 09:33:55;;;;;;;;;;;;;;;22.61;40.91;100337.53;4999314;28;20108;-70
2022/04/13 09:36:40;;;;;;;5.00;2.13;;;;;;;22.62;38.33;100341.91;5013280;28;20388;-69
2022/04/13 09:39:24;;;;;;;12.82;3.00;;;;;;;22.67;40.13;100342.94;5012574;28;20053;-71
2022/04/13 09:42:12;;;;;;;4.32;2.40;;;;;;;22.73;41.65;100344.75;5013344;28;20057;-70
2022/04/13 09:45:02;;;;;;;6.25;2.47;;;;;;;22.60;40.55;100341.31;5013422;28;20092;-69
2022/04/13 09:47:46;;;;;;;8.80;2.25;;;;;;;22.99;39.78;100344.56;5013272;28;20040;-69
2022/04/13 09:50:30;;;;;;;;;;;;;;;23.40;38.32;100344.81;5012908;28;20052;-69
2022/04/13 09:53:15;;;;;;;5.47;2.13;;;;;;;24.85;37.88;100346.31;5013751;28;19970;-69
2022/04/13 09:56:00;;;;;;;6.07;2.25;;;;;;;24.94;37.35;100342.16;5013264;28;20497;-70
2022/04/13 09:58:44;;;;;;;5.53;2.05;;;;;;;26.88;35.45;100340.09;5013217;28;20064;-70
2022/04/13 10:01:28;;;;;;;3.85;2.10;;;;;;;-139.48;100.00;61774.03;5012391;28;20564;-70
2022/04/13 10:04:23;;;;;;;3.67;1.95;;;;;;;26.88;35.45;100340.09;5013283;28;20056;-70
2022/04/13 10:07:16;;;;;;;4.45;2.38;;;;;;;29.52;28.00;100323.31;5012052;28;20410;-70
2022/04/13 10:10:01;;;;;;;7.13;2.15;;;;;;;-139.48;100.00;61774.03;5012957;28;20100;-69
2022/04/13 10:12:48;;;;;;;9.52;2.40;;;;;;;-139.48;100.00;61774.03;5013047;28;20053;-69
2022/04/13 10:15:32;;;;;;;4.10;2.05;;;;;;;-139.48;100.00;61774.03;5013032;28;20049;-70
2022/04/13 10:18:16;;;;;;;4.57;2.55;;;;;;;-139.48;100.00;61774.03;5016482;28;20052;-70
2022/04/13 10:21:00;;;;;;;6.15;2.42;;;;;;;-139.48;100.00;61774.03;5016025;28;20053;-69
2022/04/13 10:23:43;;;;;;;5.55;2.25;;;;;;;-139.48;100.00;61774.03;5016649;28;20137;-69
2022/04/13 10:26:28;;;;;;;3.88;1.92;;;;;;;-139.48;100.00;61774.03;5016783;28;20068;-70
2022/04/13 10:29:16;;;;;;;5.45;2.10;;;;;;;29.52;28.00;100323.31;5015614;28;20141;-70
2022/04/13 10:32:10;;;;;;;3.92;2.30;;;;;;;31.08;27.49;100319.94;5015809;28;20129;-70
2022/04/13 10:34:59;;;;;;;6.65;2.40;;;;;;;32.72;25.48;100324.09;5015752;28;20085;-70
2022/04/13 10:37:43;;;;;;;7.32;2.55;;;;;;;32.03;25.57;100319.75;5015381;28;20045;-70
2022/04/13 10:40:33;;;;;;;5.05;2.53;;;;;;;33.28;24.33;100317.00;5016367;28;20080;-70
2022/04/13 10:43:18;;;;;;;4.82;2.80;;;;;;;32.54;25.58;100310.09;5015280;28;20091;-70
2022/04/13 10:46:02;;;;;;;5.63;2.97;;;;;;;33.16;25.27;100309.06;5015556;28;20045;-70
2022/04/13 10:48:46;;;;;;;4.22;2.38;;;;;;;33.61;24.18;100305.03;5015529;28;20054;-70
2022/04/13 10:51:34;;;;;;;8.90;6.55;;;;;;;32.87;25.14;100298.31;5015475;28;20048;-70
2022/04/13 10:54:19;;;;;;;7.40;2.83;;;;;;;33.06;24.74;100306.38;5015083;28;20057;-69
2022/04/13 10:57:05;;;;;;;3.28;2.28;;;;;;;32.31;25.89;100306.13;5001504;28;20092;-69
2022/04/13 10:59:51;;;;;;;19.77;2.78;;;;;;;32.98;24.74;100299.88;5015277;28;20421;-69
2022/04/13 11:02:44;;;;;;;5.93;2.70;;;;;;;34.06;23.75;100302.56;5014839;28;20056;-70
2022/04/13 11:05:32;;;;;;;8.60;2.88;;;;;;;33.56;25.54;100297.63;5016188;28;20509;-70
2022/04/13 11:08:22;;;;;;;5.47;2.67;;;;;;;35.00;24.34;100299.50;5014850;28;20092;-70
2022/04/13 11:11:06;;;;;;;8.10;3.40;;;;;;;34.00;23.47;100301.00;5015818;28;20048;-70
2022/04/13 11:13:51;;;;;;;5.75;2.80;;;;;;;34.35;25.34;100306.06;5014793;28;20052;-69
2022/04/13 11:16:35;;;;;;;9.05;2.83;;;;;;;35.74;21.66;100290.16;5014471;28;20563;-70
2022/04/13 11:19:20;;;;;;;6.95;2.60;;;;;;;37.12;21.31;100303.91;5016222;28;20049;-70
2022/04/13 11:22:07;;;;;;;6.45;2.83;;;;;;;36.86;22.26;100297.34;5015931;28;20095;-69
2022/04/13 11:24:51;;;;;;;6.50;2.75;;;;;;;38.07;19.80;100293.75;5014509;28;20052;-70
2022/04/13 11:27:53;;;;;;;8.20;3.28;;;;;;;39.06;19.00;100296.44;5014716;28;20512;-70
2022/04/13 11:31:09;;;;;;;4.97;2.50;;;;;;;35.92;22.02;100290.03;5015307;28;20084;-69
2022/04/13 11:33:56;;;;;;;6.85;2.78;;;;;;;37.56;20.91;100281.59;5014478;28;20350;-70
2022/04/13 11:36:51;;;;;;;9.00;3.35;;;;;;;38.21;19.87;100279.69;5000249;28;20049;-70
2022/04/13 11:39:51;;;;;;;4.30;2.33;;;;;;;36.85;22.23;100279.00;5014495;28;20060;-69
2022/04/13 11:42:35;;;;;;;4.90;2.88;;;;;;;37.67;20.46;100286.56;5014579;28;20115;-68
2022/04/13 11:45:20;;;;;;;8.75;3.10;;;;;;;37.05;21.06;100278.53;5015284;28;20092;-68
2022/04/13 11:48:05;;;;;;;4.55;2.53;;;;;;;37.79;20.09;100274.81;5014050;28;20143;-68
2022/04/13 11:50:49;;;;;;;5.90;2.63;;;;;;;37.84;19.81;100266.31;5014377;28;20044;-70
2022/04/13 11:53:52;;;;;;;8.48;3.78;;;;;;;36.23;21.65;100272.44;5014337;28;20080;-69
2022/04/13 11:56:38;;;;;;;9.40;2.65;;;;;;;36.98;20.68;100272.56;5014127;28;20045;-70
2022/04/13 11:59:47;;;;;;;6.95;2.90;;;;;;;37.41;20.12;100270.88;5014228;28;20056;-70
2022/04/13 12:02:32;;;;;;;6.22;3.05;;;;;;;37.77;20.37;100264.00;5013912;28;20518;-70
2022/04/13 12:05:17;;;;;;;6.57;2.72;;;;;;;38.12;20.77;100259.38;5015277;28;20505;-70
2022/04/13 12:08:01;;;;;;;5.45;2.80;;;;;;;38.45;20.41;100257.78;5014672;28;20068;-70
2022/04/13 12:11:06;;;;;;;6.32;2.90;;;;;;;39.22;18.80;100255.72;5014700;28;20092;-70
2022/04/13 12:13:55;;;;;;;5.82;2.75;;;;;;;37.68;20.09;100254.00;5001222;28;20044;-70
2022/04/13 12:16:40;;;;;;;4.93;2.53;;;;;;;37.89;19.63;100249.47;5014680;28;20049;-70
2022/04/13 12:19:23;;;;;;;11.57;2.80;;;;;;;37.35;20.39;100258.25;5013810;28;20161;-70
2022/04/13 12:22:15;;;;;;;6.43;3.50;;;;;;;35.84;22.27;100256.66;5013717;28;20079;-70
2022/04/13 12:25:03;;;;;;;5.20;2.65;;;;;;;38.03;20.41;100255.75;5013606;28;20048;-70
2022/04/13 12:28:05;;;;;;;5.47;2.58;;;;;;;37.29;22.03;100259.53;5014396;28;20049;-70
2022/04/13 12:31:02;;;;;;;4.07;2.40;;;;;;;36.90;20.91;100254.72;5014354;28;20045;-70
2022/04/13 12:33:46;;;;;;;7.22;2.80;;;;;;;37.12;19.66;100259.44;5013601;28;20049;-70
2022/04/13 12:36:30;;;;;;;6.78;2.90;;;;;;;37.39;20.15;100243.38;5013428;28;20524;-70
2022/04/13 12:39:14;;;;;;;6.72;2.63;;;;;;;37.75;20.42;100244.03;5014474;28;20060;-70